Time;durP1;ratioP1;P1;durP2;ratioP2;P2;SDS_P1;SDS_P2;PMS_P1;PMS_P2;Temp;Humidity;BMP_temperature;BMP_pressure;BME280_temperature;BME280_humidity;BME280_pressure;Samples;Min_cycle;Max_cycle;Signal;HPM_P1;HPM_P2
2022/05/26 00:00:46;;;;;;;;;;;14.50;99.90;;;;;;5218753;28;19923;-75
2022/05/26 00:03:19;;;;;;;;;;;14.50;99.90;;;;;;5207048;28;19908;-77
2022/05/26 00:05:51;;;;;;;;;;;14.60;99.90;;;;;;5204500;28;19920;-75
2022/05/26 00:08:22;;;;;;;;;;;14.50;99.90;;;;;;5217407;28;19916;-75
2022/05/26 00:10:55;;;;;;;;;;;14.50;99.90;;;;;;5213634;28;19916;-74
2022/05/26 00:13:29;;;;;;;;;;;14.60;99.90;;;;;;5198154;28;19913;-75
2022/05/26 00:16:06;;;;;;;;;;;14.60;99.90;;;;;;5197178;28;19927;-76
2022/05/26 00:18:45;;;;;;;;;;;14.60;99.90;;;;;;5232799;28;19917;-75
2022/05/26 00:21:17;;;;;;;;;;;14.70;99.90;;;;;;5206834;28;19912;-73
2022/05/26 00:23:48;;;;;;;;;;;14.70;99.90;;;;;;5201836;28;19908;-75
2022/05/26 00:26:20;;;;;;;;;;;14.70;99.90;;;;;;5215390;28;19908;-76
2022/05/26 00:28:51;;;;;;;;;;;14.70;99.90;;;;;;5202326;28;19909;-76
2022/05/26 00:31:23;;;;;;;;;;;14.70;99.90;;;;;;5214765;28;19916;-75
2022/05/26 00:33:57;;;;;;;;;;;14.70;99.90;;;;;;5223126;28;19917;-74
2022/05/26 00:36:37;;;;;;;;;;;14.70;99.90;;;;;;5216606;28;20123;-76
2022/05/26 00:39:16;;;;;;;;;;;14.80;99.90;;;;;;5207272;28;19935;-76
2022/05/26 00:41:53;;;;;;;;;;;14.80;99.90;;;;;;5201658;28;19908;-76
2022/05/26 00:44:26;;;;;;;;;;;14.70;99.90;;;;;;5217018;28;19927;-76
2022/05/26 00:47:13;;;;;;;;;;;14.70;99.90;;;;;;5217373;28;20222;-74
2022/05/26 00:50:03;;;;;;;;;;;14.60;99.90;;;;;;5202308;28;19927;-76
2022/05/26 00:52:58;;;;;;;;;;;14.70;99.90;;;;;;5214191;28;19908;-75
2022/05/26 00:55:36;;;;;;;;;;;14.70;99.90;;;;;;5213409;28;20431;-75
2022/05/26 00:58:14;;;;;;;;;;;14.70;99.90;;;;;;5212174;28;19915;-76
2022/05/26 01:00:52;;;;;;;;;;;14.80;99.90;;;;;;5207256;28;19923;-75
2022/05/26 01:03:38;;;;;;;;;;;14.80;99.90;;;;;;5200886;28;19915;-75
2022/05/26 01:06:19;;;;;;;;;;;14.80;99.90;;;;;;5206332;28;19908;-76
2022/05/26 01:08:57;;;;;;;;;;;14.80;99.90;;;;;;5212463;28;19916;-75
2022/05/26 01:11:33;;;;;;;;;;;14.90;99.90;;;;;;5218714;28;19917;-74
2022/05/26 01:14:16;;;;;;;;;;;14.90;99.90;;;;;;5189388;28;19909;-76
2022/05/26 01:17:11;;;;;;;;;;;14.80;99.90;;;;;;5201766;28;19913;-75
2022/05/26 01:19:51;;;;;;;;;;;14.90;99.90;;;;;;5202538;28;19916;-76
2022/05/26 01:23:00;;;;;;;;;;;14.90;99.90;;;;;;5218307;28;20118;-75
2022/05/26 01:25:58;;;;;;;;;;;14.90;99.90;;;;;;5218351;28;19940;-75
2022/05/26 01:28:41;;;;;;;;;;;14.90;99.90;;;;;;5209267;28;19915;-76
2022/05/26 01:31:43;;;;;;;;;;;14.80;99.90;;;;;;5216631;28;19909;-76
2022/05/26 01:34:22;;;;;;;;;;;14.80;99.90;;;;;;5207599;28;19916;-76
2022/05/26 01:37:30;;;;;;;;;;;14.90;99.90;;;;;;5220754;28;19912;-75
2022/05/26 01:40:12;;;;;;;;;;;14.80;99.90;;;;;;5225406;28;19922;-75
2022/05/26 01:42:50;;;;;;;;;;;14.80;99.90;;;;;;5221930;28;19923;-75
2022/05/26 01:45:45;;;;;;;;;;;14.80;99.90;;;;;;5206932;28;19909;-75
2022/05/26 01:48:21;;;;;;;;;;;14.80;99.90;;;;;;5218736;28;19912;-75
2022/05/26 01:51:10;;;;;;;;;;;14.90;99.90;;;;;;5201203;28;19909;-76
2022/05/26 01:53:44;;;;;;;;;;;14.90;99.90;;;;;;5218472;28;19915;-75
2022/05/26 01:56:24;;;;;;;;;;;15.00;99.90;;;;;;5205418;28;19908;-75
2022/05/26 01:59:05;;;;;;;;;;;15.10;99.90;;;;;;5218273;28;20435;-75
2022/05/26 02:01:43;;;;;;;;;;;15.10;99.90;;;;;;5215413;28;20071;-75
2022/05/26 02:04:19;;;;;;;;;;;15.00;99.90;;;;;;5212089;28;19916;-75
2022/05/26 02:07:02;;;;;;;;;;;15.10;99.90;;;;;;5207082;28;19905;-75
2022/05/26 02:09:41;;;;;;;;;;;15.10;99.90;;;;;;5238355;28;19915;-74
2022/05/26 02:12:25;;;;;;;;;;;15.10;99.90;;;;;;5205880;28;19904;-73
2022/05/26 02:15:10;;;;;;;;;;;15.00;99.90;;;;;;5226052;28;20256;-74
2022/05/26 02:17:47;;;;;;;;;;;15.10;99.90;;;;;;5221777;28;19943;-75
2022/05/26 02:20:28;;;;;;;;;;;15.10;99.90;;;;;;5213693;28;19915;-74
2022/05/26 02:23:05;;;;;;;;;;;15.00;99.90;;;;;;5206599;28;20318;-76
2022/05/26 02:25:36;;;;;;;;;;;15.10;99.90;;;;;;5216296;28;19923;-74
2022/05/26 02:28:12;;;;;;;;;;;15.20;99.90;;;;;;5216130;28;20340;-73
2022/05/26 02:30:46;;;;;;;;;;;15.30;99.90;;;;;;5214682;28;19909;-73
2022/05/26 02:33:23;;;;;;;;;;;15.30;99.90;;;;;;5215854;28;19913;-76
2022/05/26 02:35:55;;;;;;;;;;;15.30;99.90;;;;;;5204406;28;20442;-76
2022/05/26 02:38:27;;;;;;;;;;;15.30;99.90;;;;;;5211260;28;19904;-76
2022/05/26 02:41:01;;;;;;;;;;;15.20;99.90;;;;;;5220256;28;19921;-76
2022/05/26 02:43:33;;;;;;;;;;;15.20;99.90;;;;;;5202418;28;19925;-75
2022/05/26 02:46:29;;;;;;;;;;;15.20;99.90;;;;;;5200931;28;19949;-75
2022/05/26 02:49:29;;;;;;;;;;;15.20;99.90;;;;;;5201517;28;19935;-76
2022/05/26 02:52:41;;;;;;;;;;;15.20;99.90;;;;;;5229401;28;19916;-74
2022/05/26 02:55:38;;;;;;;;;;;15.20;99.90;;;;;;5203779;28;19913;-76
2022/05/26 02:58:38;;;;;;;;;;;15.20;99.90;;;;;;5204884;28;19923;-75
2022/05/26 03:01:22;;;;;;;;;;;15.10;99.90;;;;;;5212305;28;19909;-74
2022/05/26 03:04:09;;;;;;;;;;;15.10;99.90;;;;;;5213268;28;19909;-75
2022/05/26 03:06:49;;;;;;;;;;;15.00;99.90;;;;;;5190794;28;19916;-75
2022/05/26 03:09:20;;;;;;;;;;;15.00;99.90;;;;;;5187380;28;19920;-75
2022/05/26 03:11:57;;;;;;;;;;;15.00;99.90;;;;;;5198403;28;20118;-77
2022/05/26 03:14:33;;;;;;;;;;;15.00;99.90;;;;;;5228725;28;19908;-75
2022/05/26 03:17:04;;;;;;;;;;;15.00;99.90;;;;;;5242843;28;19916;-76
2022/05/26 03:19:36;;;;;;;;;;;15.10;99.90;;;;;;5226036;28;20190;-76
2022/05/26 03:22:07;;;;;;;;;;;15.20;99.90;;;;;;5206037;28;19909;-76
2022/05/26 03:24:41;;;;;;;;;;;15.10;99.90;;;;;;5220818;28;19927;-75
2022/05/26 03:27:15;;;;;;;;;;;15.20;99.90;;;;;;5222954;28;19904;-75
2022/05/26 03:29:50;;;;;;;;;;;15.10;99.90;;;;;;5221710;28;19910;-76
2022/05/26 03:32:28;;;;;;;;;;;15.10;99.90;;;;;;5211686;28;20122;-76
2022/05/26 03:40:56;;;;;;;;;;;15.10;99.90;;;;;;5222098;28;19908;-76
2022/05/26 03:43:54;;;;;;;;;;;15.10;99.90;;;;;;5218902;28;19908;-76
2022/05/26 03:46:31;;;;;;;;;;;15.10;99.90;;;;;;5239749;28;19909;-76
2022/05/26 03:49:07;;;;;;;;;;;15.20;99.90;;;;;;5223355;28;19915;-77
2022/05/26 03:51:38;;;;;;;;;;;15.20;99.90;;;;;;5220731;28;20147;-76
2022/05/26 03:54:12;;;;;;;;;;;15.10;99.90;;;;;;5221579;28;19915;-75
2022/05/26 03:56:43;;;;;;;;;;;14.90;99.90;;;;;;5217676;28;19921;-77
2022/05/26 03:59:14;;;;;;;;;;;14.80;99.90;;;;;;5214020;28;20130;-76
2022/05/26 04:01:46;;;;;;;;;;;14.70;99.90;;;;;;5217269;28;19920;-75
2022/05/26 04:04:20;;;;;;;;;;;14.70;99.90;;;;;;5198334;28;20014;-74
2022/05/26 04:06:54;;;;;;;;;;;14.90;99.90;;;;;;5220936;28;20110;-76
2022/05/26 04:09:26;;;;;;;;;;;15.20;99.90;;;;;;5220937;28;19938;-76
2022/05/26 04:11:59;;;;;;;;;;;15.30;99.90;;;;;;5213380;28;19910;-76
2022/05/26 04:14:33;;;;;;;;;;;15.40;99.90;;;;;;5199681;28;19939;-76
2022/05/26 04:17:07;;;;;;;;;;;15.40;99.90;;;;;;5216924;28;20125;-76
2022/05/26 04:19:42;;;;;;;;;;;15.60;99.90;;;;;;5215705;28;19922;-77
2022/05/26 04:22:17;;;;;;;;;;;15.70;99.90;;;;;;5222527;28;19991;-75
2022/05/26 04:24:55;;;;;;;;;;;15.80;99.90;;;;;;5218654;28;19916;-75
2022/05/26 04:27:30;;;;;;;;;;;15.90;99.90;;;;;;5213359;28;19913;-76
2022/05/26 04:30:04;;;;;;;;;;;16.00;99.90;;;;;;5205867;28;20259;-75
2022/05/26 04:32:39;;;;;;;;;;;16.10;99.90;;;;;;5199451;28;19909;-75
2022/05/26 04:35:11;;;;;;;;;;;16.20;99.90;;;;;;5199379;28;19901;-75
2022/05/26 04:37:45;;;;;;;;;;;16.40;99.90;;;;;;5203738;28;19915;-74
2022/05/26 04:40:19;;;;;;;;;;;16.50;99.90;;;;;;5215395;28;20119;-73
2022/05/26 04:42:50;;;;;;;;;;;16.60;99.90;;;;;;5214997;28;19909;-76
2022/05/26 04:45:22;;;;;;;;;;;16.80;99.90;;;;;;5204539;28;20235;-76
2022/05/26 04:47:58;;;;;;;;;;;16.90;99.90;;;;;;5199150;28;19934;-76
2022/05/26 04:50:31;;;;;;;;;;;17.10;99.90;;;;;;5214404;28;19991;-76
2022/05/26 04:53:04;;;;;;;;;;;17.30;99.90;;;;;;5218022;28;20241;-76
2022/05/26 04:55:40;;;;;;;;;;;17.40;99.90;;;;;;5214203;28;20223;-75
2022/05/26 04:58:14;;;;;;;;;;;17.70;99.90;;;;;;5214478;28;19923;-74
2022/05/26 05:00:45;;;;;;;;;;;17.90;99.90;;;;;;5200148;28;19931;-75
2022/05/26 05:03:19;;;;;;;;;;;18.00;99.90;;;;;;5205801;28;19913;-73
2022/05/26 05:05:56;;;;;;;;;;;18.10;99.90;;;;;;5211879;28;20257;-75
2022/05/26 05:08:30;;;;;;;;;;;18.20;99.90;;;;;;5209816;28;19905;-76
2022/05/26 05:11:04;;;;;;;;;;;18.40;99.90;;;;;;5203911;28;19920;-75
2022/05/26 05:13:36;;;;;;;;;;;18.60;99.90;;;;;;5187791;28;19912;-75
2022/05/26 05:16:31;;;;;;;;;;;18.70;99.90;;;;;;5220617;28;19925;-75
2022/05/26 05:19:05;;;;;;;;;;;18.60;99.90;;;;;;5205255;28;19909;-75
2022/05/26 05:21:47;;;;;;;;;;;18.70;99.90;;;;;;5200006;28;19905;-74
2022/05/26 05:25:11;;;;;;;;;;;18.80;99.90;;;;;;5202320;28;19987;-75
2022/05/26 05:27:50;;;;;;;;;;;18.90;99.90;;;;;;5167805;28;19904;-76
2022/05/26 05:30:37;;;;;;;;;;;18.90;99.90;;;;;;5203997;28;19916;-75
2022/05/26 05:33:15;;;;;;;;;;;18.90;99.90;;;;;;5210124;28;19919;-75
2022/05/26 05:35:56;;;;;;;;;;;19.10;99.90;;;;;;5224051;28;19917;-75
2022/05/26 05:38:27;;;;;;;;;;;19.10;99.90;;;;;;5196565;28;19913;-75
2022/05/26 05:40:59;;;;;;;;;;;19.20;99.90;;;;;;5214712;28;19912;-75
2022/05/26 05:43:33;;;;;;;;;;;19.30;99.90;;;;;;5219281;28;20255;-74
2022/05/26 05:46:08;;;;;;;;;;;19.40;99.90;;;;;;5215226;28;19913;-75
2022/05/26 05:48:39;;;;;;;;;;;19.40;99.90;;;;;;5207566;28;20446;-75
2022/05/26 05:51:11;;;;;;;;;;;19.40;99.90;;;;;;5237384;28;20544;-76
2022/05/26 05:53:42;;;;;;;;;;;19.70;99.90;;;;;;5219008;28;19923;-76
2022/05/26 05:56:14;;;;;;;;;;;19.90;99.90;;;;;;5219179;28;19927;-74
2022/05/26 05:58:47;;;;;;;;;;;19.80;99.90;;;;;;5221397;28;19916;-74
2022/05/26 06:01:26;;;;;;;;;;;19.90;99.90;;;;;;5218306;28;19901;-75
2022/05/26 06:04:10;;;;;;;;;;;19.90;99.90;;;;;;5203838;28;19916;-74
2022/05/26 06:06:46;;;;;;;;;;;19.90;99.90;;;;;;5207961;28;19913;-74
2022/05/26 06:09:20;;;;;;;;;;;20.10;99.90;;;;;;5210618;28;19909;-75
2022/05/26 06:11:51;;;;;;;;;;;20.10;99.90;;;;;;5219659;28;19904;-75
2022/05/26 06:14:29;;;;;;;;;;;20.10;99.90;;;;;;5218620;28;19942;-75
2022/05/26 06:17:01;;;;;;;;;;;19.90;99.90;;;;;;5226672;28;19917;-75
2022/05/26 06:19:36;;;;;;;;;;;19.80;99.90;;;;;;5220904;28;19909;-75
2022/05/26 06:22:20;;;;;;;;;;;19.90;99.90;;;;;;5219169;28;19908;-75
2022/05/26 06:24:51;;;;;;;;;;;19.90;99.90;;;;;;5213631;28;19995;-75
2022/05/26 06:30:17;;;;;;;;;;;20.10;99.90;;;;;;5218994;28;19920;-74
2022/05/26 06:38:40;;;;;;;;;;;20.80;99.90;;;;;;5216236;28;20098;-74
2022/05/26 06:44:04;;;;;;;;;;;21.10;99.90;;;;;;5208843;28;19916;-76
2022/05/26 06:46:38;;;;;;;;;;;20.90;99.90;;;;;;5222056;28;20111;-76
2022/05/26 06:49:09;;;;;;;;;;;20.90;99.90;;;;;;5217086;28;19912;-74
2022/05/26 06:51:43;;;;;;;;;;;21.00;99.90;;;;;;5220499;28;20112;-74
2022/05/26 06:54:17;;;;;;;;;;;20.60;99.90;;;;;;5220464;28;19916;-75
2022/05/26 06:56:52;;;;;;;;;;;20.60;99.90;;;;;;5221415;28;19915;-75
2022/05/26 06:59:24;;;;;;;;;;;20.60;99.90;;;;;;5218637;28;19909;-75
2022/05/26 07:01:58;;;;;;;;;;;21.10;99.90;;;;;;5220731;28;19917;-75
2022/05/26 07:04:32;;;;;;;;;;;21.20;99.90;;;;;;5212661;28;19919;-75
2022/05/26 07:07:14;;;;;;;;;;;21.40;99.90;;;;;;5228774;28;19976;-75
2022/05/26 07:09:47;;;;;;;;;;;21.30;99.90;;;;;;5209307;28;19905;-75
2022/05/26 07:12:21;;;;;;;;;;;21.40;99.90;;;;;;5214598;28;19908;-74
2022/05/26 07:14:56;;;;;;;;;;;21.40;99.90;;;;;;5217078;28;19919;-74
2022/05/26 07:17:27;;;;;;;;;;;21.80;99.90;;;;;;5216182;28;20354;-75
2022/05/26 07:19:58;;;;;;;;;;;22.20;99.90;;;;;;5214873;28;19976;-75
2022/05/26 07:22:32;;;;;;;;;;;22.10;99.90;;;;;;5217401;28;19916;-75
2022/05/26 07:25:07;;;;;;;;;;;22.20;99.90;;;;;;5215785;28;20095;-73
2022/05/26 07:27:42;;;;;;;;;;;22.50;99.90;;;;;;5216850;28;20434;-74
2022/05/26 07:30:14;;;;;;;;;;;22.80;99.90;;;;;;5216381;28;19918;-75
2022/05/26 07:32:49;;;;;;;;;;;23.10;99.90;;;;;;5200039;28;19912;-75
2022/05/26 07:35:20;;;;;;;;;;;22.90;99.90;;;;;;5215436;28;19905;-76
2022/05/26 07:43:35;;;;;;;;;;;22.70;99.90;;;;;;5232617;28;19908;-76
2022/05/26 07:46:09;;;;;;;;;;;22.90;99.90;;;;;;5219712;28;20106;-76
2022/05/26 07:48:48;;;;;;;;;;;22.80;99.90;;;;;;5216765;28;20324;-76
2022/05/26 07:51:24;;;;;;;;;;;22.90;99.90;;;;;;5219858;28;19916;-75
2022/05/26 07:54:00;;;;;;;;;;;23.00;99.90;;;;;;5202318;28;19922;-75
2022/05/26 07:56:37;;;;;;;;;;;23.30;99.90;;;;;;5197370;28;20304;-74
2022/05/26 07:59:09;;;;;;;;;;;23.40;99.90;;;;;;5198495;28;20351;-76
2022/05/26 08:01:40;;;;;;;;;;;23.40;99.90;;;;;;5214969;28;20278;-76
2022/05/26 08:04:15;;;;;;;;;;;23.70;99.90;;;;;;5190002;28;19908;-77
2022/05/26 08:06:49;;;;;;;;;;;23.30;99.90;;;;;;5222649;28;19901;-76
2022/05/26 08:09:22;;;;;;;;;;;22.70;99.90;;;;;;5217284;28;19915;-76
2022/05/26 08:11:58;;;;;;;;;;;22.70;99.90;;;;;;5208863;28;19923;-77
2022/05/26 08:14:32;;;;;;;;;;;22.70;99.90;;;;;;5218378;28;19897;-76
2022/05/26 08:17:04;;;;;;;;;;;22.20;99.90;;;;;;5213808;28;20195;-75
2022/05/26 08:19:37;;;;;;;;;;;22.10;99.90;;;;;;5216949;28;19909;-76
2022/05/26 08:22:13;;;;;;;;;;;22.20;99.90;;;;;;5220709;28;20198;-74
2022/05/26 08:24:52;;;;;;;;;;;22.10;99.90;;;;;;5219492;28;19904;-76
2022/05/26 08:27:24;;;;;;;;;;;21.90;99.90;;;;;;5220374;28;19999;-76
2022/05/26 08:29:59;;;;;;;;;;;22.00;99.90;;;;;;5204473;28;19923;-77
2022/05/26 08:32:30;;;;;;;;;;;22.30;99.90;;;;;;5213020;28;19913;-76
2022/05/26 08:35:10;;;;;;;;;;;22.50;99.90;;;;;;5220970;28;19923;-76
2022/05/26 08:37:44;;;;;;;;;;;22.90;99.90;;;;;;5200548;28;20273;-74
2022/05/26 08:40:37;;;;;;;;;;;24.00;99.90;;;;;;5217591;28;20125;-74
2022/05/26 08:43:20;;;;;;;;;;;23.80;99.90;;;;;;5220626;28;20032;-74
2022/05/26 08:45:57;;;;;;;;;;;23.50;99.90;;;;;;5219823;28;19919;-77
2022/05/26 08:48:48;;;;;;;;;;;23.50;99.90;;;;;;5223960;28;20086;-77
2022/05/26 08:51:48;;;;;;;;;;;23.50;99.90;;;;;;5225245;28;19908;-74
2022/05/26 08:54:22;;;;;;;;;;;22.90;99.90;;;;;;5224891;28;20102;-75
2022/05/26 08:56:56;;;;;;;;;;;23.10;99.90;;;;;;5224809;28;19909;-76
2022/05/26 08:59:39;;;;;;;;;;;23.20;99.90;;;;;;5211217;28;20268;-76
2022/05/26 09:02:34;;;;;;;;;;;23.20;99.90;;;;;;5202520;28;19912;-73
2022/05/26 09:05:20;;;;;;;;;;;23.40;99.90;;;;;;5201773;28;20329;-76
2022/05/26 09:14:44;;;;;;;;;;;23.50;99.90;;;;;;5208993;28;19905;-76
2022/05/26 09:17:15;;;;;;;;;;;23.70;99.90;;;;;;5148219;28;19918;-76
2022/05/26 09:19:53;;;;;;;;;;;23.80;99.90;;;;;;5136504;28;19918;-75
2022/05/26 09:22:33;;;;;;;;;;;23.60;99.90;;;;;;5143359;28;20217;-75
2022/05/26 09:25:33;;;;;;;;;;;23.70;99.90;;;;;;5159998;28;19983;-75
2022/05/26 09:28:10;;;;;;;;;;;23.80;99.90;;;;;;5147398;28;20127;-73
2022/05/26 09:30:44;;;;;;;;;;;23.90;99.90;;;;;;5143574;28;19917;-74
2022/05/26 09:33:19;;;;;;;;;;;24.00;99.90;;;;;;5158288;28;19905;-76
2022/05/26 09:35:51;;;;;;;;;;;24.00;99.90;;;;;;5142157;28;19913;-76
2022/05/26 09:38:33;;;;;;;;;;;23.90;99.90;;;;;;5157861;28;19920;-76
2022/05/26 09:41:08;;;;;;;;;;;24.30;99.90;;;;;;5129586;28;19910;-73
2022/05/26 09:43:51;;;;;;;;;;;24.30;99.90;;;;;;5132047;28;19912;-76
2022/05/26 09:46:26;;;;;;;;;;;24.00;99.90;;;;;;5131029;28;19917;-75
2022/05/26 09:49:08;;;;;;;;;;;24.40;99.90;;;;;;5144609;28;19924;-76
2022/05/26 09:51:49;;;;;;;;;;;24.50;99.90;;;;;;5132825;28;19940;-76
2022/05/26 09:54:32;;;;;;;;;;;24.50;99.90;;;;;;5211593;28;19913;-75
2022/05/26 09:57:28;;;;;;;;;;;23.90;99.90;;;;;;5201866;28;19917;-75
2022/05/26 09:59:59;;;;;;;;;;;23.70;99.90;;;;;;5204399;28;19908;-75
2022/05/26 10:02:40;;;;;;;;;;;23.70;99.90;;;;;;5221290;28;20320;-75
2022/05/26 10:05:28;;;;;;;;;;;24.00;99.90;;;;;;5194707;28;19916;-74
2022/05/26 10:08:24;;;;;;;;;;;24.40;99.90;;;;;;5218350;28;20404;-76
2022/05/26 10:11:01;;;;;;;;;;;24.80;99.90;;;;;;5218325;28;19907;-76
2022/05/26 10:14:00;;;;;;;;;;;24.90;99.90;;;;;;5221036;28;19905;-75
2022/05/26 10:16:55;;;;;;;;;;;24.50;99.90;;;;;;5201434;28;20092;-75
2022/05/26 10:19:38;;;;;;;;;;;24.50;99.90;;;;;;5230931;28;19917;-75
2022/05/26 10:22:49;;;;;;;;;;;24.90;99.90;;;;;;5222284;28;20351;-74
2022/05/26 10:25:29;;;;;;;;;;;24.70;99.90;;;;;;5201125;28;19912;-74
2022/05/26 10:28:26;;;;;;;;;;;24.90;99.90;;;;;;5207645;28;20104;-74
2022/05/26 10:31:04;;;;;;;;;;;25.80;99.90;;;;;;5200657;28;20278;-76
2022/05/26 10:34:05;;;;;;;;;;;25.70;99.90;;;;;;5200861;28;19898;-75
2022/05/26 10:36:46;;;;;;;;;;;26.10;99.90;;;;;;5214410;28;20103;-74
2022/05/26 10:39:32;;;;;;;;;;;26.20;99.90;;;;;;5208072;28;19939;-76
2022/05/26 10:42:28;;;;;;;;;;;26.30;99.90;;;;;;5220325;28;19904;-76
2022/05/26 10:45:19;;;;;;;;;;;26.00;99.90;;;;;;5200813;28;19924;-76
2022/05/26 10:47:59;;;;;;;;;;;25.30;99.90;;;;;;5205655;28;19917;-76
2022/05/26 10:50:51;;;;;;;;;;;26.10;99.90;;;;;;5200422;28;19909;-76
2022/05/26 10:53:44;;;;;;;;;;;27.60;99.90;;;;;;5208388;28;19913;-76
2022/05/26 10:56:43;;;;;;;;;;;27.40;99.90;;;;;;5220102;28;20125;-74
2022/05/26 10:59:45;;;;;;;;;;;27.60;99.90;;;;;;5220079;28;20069;-74
2022/05/26 11:02:36;;;;;;;;;;;27.80;99.90;;;;;;5221060;28;19905;-74
2022/05/26 11:05:20;;;;;;;;;;;28.40;99.90;;;;;;5220225;28;19923;-74
2022/05/26 11:08:10;;;;;;;;;;;28.00;99.90;;;;;;5202943;28;19915;-75
2022/05/26 11:10:47;;;;;;;;;;;28.40;99.90;;;;;;5218827;28;19947;-75
2022/05/26 11:13:41;;;;;;;;;;;27.90;99.90;;;;;;5221713;28;19900;-75
2022/05/26 11:19:32;;;;;;;;;;;29.60;99.90;;;;;;5214349;28;20089;-75
2022/05/26 11:22:04;;;;;;;;;;;28.90;99.90;;;;;;5200647;28;19924;-76
2022/05/26 11:24:36;;;;;;;;;;;28.50;99.90;;;;;;5216886;28;19917;-75
2022/05/26 11:27:39;;;;;;;;;;;29.10;99.90;;;;;;5210520;28;19901;-75
2022/05/26 11:36:07;;;;;;;;;;;29.10;99.90;;;;;;5215092;28;20058;-75
2022/05/26 11:36:08;;;;;;;;;;;29.50;99.90;;;;;;5227547;28;19905;-76
2022/05/26 11:38:50;;;;;;;;;;;29.00;99.90;;;;;;5219100;28;19919;-76
2022/05/26 11:41:37;;;;;;;;;;;29.60;99.90;;;;;;5220267;28;19912;-74
2022/05/26 11:44:12;;;;;;;;;;;29.50;99.90;;;;;;5224138;28;20280;-75
2022/05/26 11:46:56;;;;;;;;;;;30.10;99.90;;;;;;5228451;28;19919;-76
2022/05/26 11:49:46;;;;;;;;;;;30.70;99.90;;;;;;5203989;28;19917;-74
2022/05/26 11:52:27;;;;;;;;;;;30.00;99.90;;;;;;5255838;28;19904;-75
2022/05/26 11:55:02;;;;;;;;;;;28.50;99.90;;;;;;5222315;28;19905;-74
2022/05/26 11:58:21;;;;;;;;;;;26.30;99.90;;;;;;5203952;28;19921;-73
2022/05/26 12:01:26;;;;;;;;;;;25.50;99.90;;;;;;5202878;28;20218;-74
2022/05/26 12:03:59;;;;;;;;;;;26.30;99.90;;;;;;5221683;28;19904;-73
2022/05/26 12:06:36;;;;;;;;;;;26.70;99.90;;;;;;5207879;28;19923;-74
2022/05/26 12:09:22;;;;;;;;;;;26.60;99.90;;;;;;5212749;28;19976;-74
2022/05/26 12:12:07;;;;;;;;;;;26.30;99.90;;;;;;5240068;28;20251;-75
2022/05/26 12:14:41;;;;;;;;;;;26.50;99.90;;;;;;5224353;28;20129;-74
2022/05/26 12:17:33;;;;;;;;;;;26.60;99.90;;;;;;5241421;28;19908;-75
2022/05/26 12:20:16;;;;;;;;;;;25.50;99.90;;;;;;5223736;28;19916;-74
2022/05/26 12:22:47;;;;;;;;;;;25.20;99.90;;;;;;5239545;28;19904;-75
2022/05/26 12:25:43;;;;;;;;;;;25.40;99.90;;;;;;5241442;28;19904;-75
2022/05/26 12:28:21;;;;;;;;;;;25.60;99.90;;;;;;5213280;28;19915;-75
2022/05/26 12:30:54;;;;;;;;;;;25.40;99.90;;;;;;5239687;28;19916;-75
2022/05/26 12:34:13;;;;;;;;;;;24.90;99.90;;;;;;5241180;28;20334;-75
2022/05/26 12:36:54;;;;;;;;;;;25.30;99.90;;;;;;5174991;28;19928;-74
2022/05/26 12:39:52;;;;;;;;;;;26.40;99.90;;;;;;5176609;28;19909;-77
2022/05/26 12:42:32;;;;;;;;;;;27.80;99.90;;;;;;5143414;28;19975;-75
2022/05/26 12:45:15;;;;;;;;;;;28.20;99.90;;;;;;5176097;28;20375;-78
2022/05/26 12:48:10;;;;;;;;;;;28.90;99.90;;;;;;5176983;28;19955;-74
2022/05/26 12:50:42;;;;;;;;;;;29.70;99.90;;;;;;5176254;28;19917;-75
2022/05/26 12:53:23;;;;;;;;;;;27.70;99.90;;;;;;5176001;28;20291;-76
2022/05/26 12:56:06;;;;;;;;;;;27.80;99.90;;;;;;5159182;28;19924;-75
2022/05/26 12:58:49;;;;;;;;;;;28.00;99.90;;;;;;5174295;28;19917;-76
2022/05/26 13:01:23;;;;;;;;;;;27.90;99.90;;;;;;5160273;28;20187;-76
2022/05/26 13:04:06;;;;;;;;;;;27.60;99.90;;;;;;5159334;28;19913;-75
2022/05/26 13:06:46;;;;;;;;;;;26.90;99.90;;;;;;5146709;28;19929;-75
2022/05/26 13:09:25;;;;;;;;;;;26.50;99.90;;;;;;5158097;28;20327;-74
2022/05/26 13:12:03;;;;;;;;;;;25.90;99.90;;;;;;5174133;28;19913;-74
2022/05/26 13:14:46;;;;;;;;;;;27.70;99.90;;;;;;5203376;28;19913;-73
2022/05/26 13:17:24;;;;;;;;;;;28.10;99.90;;;;;;5221512;28;19916;-74
2022/05/26 13:20:14;;;;;;;;;;;27.20;99.90;;;;;;5222601;28;19911;-76
2022/05/26 13:22:45;;;;;;;;;;;27.10;99.90;;;;;;5222034;28;20198;-77
2022/05/26 13:25:25;;;;;;;;;;;27.40;99.90;;;;;;5200519;28;20229;-74
2022/05/26 13:28:02;;;;;;;;;;;27.60;99.90;;;;;;5240018;28;19922;-74
2022/05/26 13:33:29;;;;;;;;;;;28.10;99.90;;;;;;5227772;28;19904;-75
2022/05/26 13:36:04;;;;;;;;;;;28.40;99.90;;;;;;5229221;28;20334;-75
2022/05/26 13:38:46;;;;;;;;;;;28.60;99.90;;;;;;5243051;28;19917;-76
2022/05/26 13:41:24;;;;;;;;;;;28.70;99.90;;;;;;5248562;28;19912;-75
2022/05/26 13:43:56;;;;;;;;;;;28.60;99.90;;;;;;5231136;28;20368;-74
2022/05/26 13:46:33;;;;;;;;;;;27.80;99.90;;;;;;5235169;28;19916;-75
2022/05/26 13:49:32;;;;;;;;;;;28.00;99.90;;;;;;5226572;28;20090;-78
2022/05/26 13:52:09;;;;;;;;;;;27.80;99.90;;;;;;5244091;28;20220;-76
2022/05/26 13:54:52;;;;;;;;;;;29.00;99.90;;;;;;5225851;28;19912;-75
2022/05/26 13:57:32;;;;;;;;;;;28.90;99.90;;;;;;5243526;28;20019;-74
2022/05/26 14:00:26;;;;;;;;;;;29.60;99.90;;;;;;5224870;28;19939;-74
2022/05/26 14:03:03;;;;;;;;;;;30.00;99.90;;;;;;5241050;28;20330;-73
2022/05/26 14:05:59;;;;;;;;;;;29.60;99.90;;;;;;5202072;28;19923;-77
2022/05/26 14:08:34;;;;;;;;;;;29.40;99.90;;;;;;5223134;28;19916;-74
2022/05/26 14:11:42;;;;;;;;;;;28.80;99.90;;;;;;5206560;28;19912;-75
2022/05/26 14:14:38;;;;;;;;;;;29.90;99.90;;;;;;5209287;28;19916;-75
2022/05/26 14:17:34;;;;;;;;;;;29.80;99.90;;;;;;5247214;28;20111;-76
2022/05/26 14:20:24;;;;;;;;;;;28.40;99.90;;;;;;5247517;28;19916;-77
2022/05/26 14:22:56;;;;;;;;;;;28.80;99.90;;;;;;5230937;28;19904;-75
2022/05/26 14:25:27;;;;;;;;;;;30.40;99.90;;;;;;5227936;28;19904;-76
2022/05/26 14:28:08;;;;;;;;;;;29.60;99.90;;;;;;5214883;28;20106;-74
2022/05/26 14:30:44;;;;;;;;;;;28.20;99.90;;;;;;5224233;28;20144;-76
2022/05/26 14:33:21;;;;;;;;;;;29.00;99.90;;;;;;5224434;28;19903;-76
2022/05/26 14:35:53;;;;;;;;;;;28.80;99.90;;;;;;5238332;28;19926;-76
2022/05/26 14:38:26;;;;;;;;;;;28.30;99.90;;;;;;5240472;28;20182;-76
2022/05/26 14:41:00;;;;;;;;;;;27.70;99.90;;;;;;5223013;28;19921;-74
2022/05/26 14:43:34;;;;;;;;;;;27.10;99.90;;;;;;5222020;28;19908;-75
2022/05/26 14:46:06;;;;;;;;;;;27.60;99.90;;;;;;5240690;28;19923;-76
2022/05/26 14:48:41;;;;;;;;;;;29.10;99.90;;;;;;5243489;28;20327;-76
2022/05/26 14:51:12;;;;;;;;;;;29.60;99.90;;;;;;5243515;28;20111;-76
2022/05/26 14:56:36;;;;;;;;;;;28.60;99.90;;;;;;5223919;28;19909;-76
2022/05/26 14:59:07;;;;;;;;;;;29.50;99.90;;;;;;5239604;28;19916;-77
2022/05/26 15:01:39;;;;;;;;;;;30.20;99.90;;;;;;5242175;28;19918;-76
2022/05/26 15:04:11;;;;;;;;;;;29.50;99.90;;;;;;5234459;28;20083;-76
2022/05/26 15:06:45;;;;;;;;;;;28.60;99.90;;;;;;5208446;28;20132;-76
2022/05/26 15:09:19;;;;;;;;;;;28.50;99.90;;;;;;5231930;28;20217;-76
2022/05/26 15:11:56;;;;;;;;;;;27.70;99.90;;;;;;5223097;28;20186;-77
2022/05/26 15:14:31;;;;;;;;;;;28.10;99.90;;;;;;5210871;28;19919;-76
2022/05/26 15:17:11;;;;;;;;;;;29.00;99.90;;;;;;5240992;28;19922;-76
2022/05/26 15:19:51;;;;;;;;;;;29.60;99.90;;;;;;5246350;28;19922;-76
2022/05/26 15:22:28;;;;;;;;;;;28.70;99.90;;;;;;5229918;28;19919;-74
2022/05/26 15:25:02;;;;;;;;;;;28.40;99.90;;;;;;5217046;28;19916;-76
2022/05/26 15:27:37;;;;;;;;;;;27.60;99.90;;;;;;5223819;28;20444;-76
2022/05/26 15:30:12;;;;;;;;;;;28.20;99.90;;;;;;5241902;28;19949;-76
2022/05/26 15:32:48;;;;;;;;;;;26.80;99.90;;;;;;5243021;28;19904;-75
2022/05/26 15:35:27;;;;;;;;;;;25.70;99.90;;;;;;5242079;28;19908;-75
2022/05/26 15:38:04;;;;;;;;;;;25.20;99.90;;;;;;5225294;28;19920;-74
2022/05/26 15:40:36;;;;;;;;;;;25.30;99.90;;;;;;5228816;28;20130;-76
2022/05/26 15:43:07;;;;;;;;;;;24.60;99.90;;;;;;5255171;28;19917;-76
2022/05/26 15:45:38;;;;;;;;;;;24.40;99.90;;;;;;5244379;28;19930;-76
2022/05/26 15:48:11;;;;;;;;;;;24.10;99.90;;;;;;5264534;28;19904;-76
2022/05/26 15:50:51;;;;;;;;;;;24.10;99.90;;;;;;5227651;28;19914;-76
2022/05/26 15:53:29;;;;;;;;;;;24.40;99.90;;;;;;5212068;28;19935;-76
2022/05/26 15:56:05;;;;;;;;;;;24.80;99.90;;;;;;5205575;28;19912;-76
2022/05/26 15:58:38;;;;;;;;;;;24.80;99.90;;;;;;5223288;28;19923;-75
2022/05/26 16:01:12;;;;;;;;;;;24.70;99.90;;;;;;5241764;28;19917;-75
2022/05/26 16:03:46;;;;;;;;;;;24.50;99.90;;;;;;5241352;28;19912;-76
2022/05/26 16:06:20;;;;;;;;;;;25.10;99.90;;;;;;5230690;28;19912;-76
2022/05/26 16:08:56;;;;;;;;;;;25.80;99.90;;;;;;5238618;28;19923;-75